Time;durP1;ratioP1;P1;durP2;ratioP2;P2;SDS_P1;SDS_P2;PMS_P1;PMS_P2;Temp;Humidity;BMP_temperature;BMP_pressure;BME280_temperature;BME280_humidity;BME280_pressure;Samples;Min_cycle;Max_cycle;Signal;HPM_P1;HPM_P2
2023/11/12 00:04:47;;;;;;;26.02;4.72;;;;;;;22.08;100.00;101089.94;20940646;28;20089;-73
2023/11/12 00:15:13;;;;;;;24.75;5.03;;;;;;;22.14;100.00;101096.94;20921785;28;20565;-73
2023/11/12 00:25:35;;;;;;;29.40;4.68;;;;;;;22.19;100.00;101087.84;20945549;28;20071;-73
2023/11/12 00:36:00;;;;;;;29.33;5.80;;;;;;;22.16;100.00;101082.56;20932731;28;20110;-73
2023/11/12 00:46:24;;;;;;;27.92;4.70;;;;;;;22.15;100.00;101082.59;20902564;28;20144;-72
2023/11/12 00:56:48;;;;;;;27.05;4.43;;;;;;;22.13;100.00;101044.97;20930035;28;21353;-73
2023/11/12 01:07:10;;;;;;;25.17;4.53;;;;;;;22.06;100.00;101080.13;20832912;28;20057;-73
2023/11/12 01:17:35;;;;;;;24.60;4.50;;;;;;;22.03;100.00;101064.97;20873094;28;20053;-73
2023/11/12 01:27:57;;;;;;;26.35;5.97;;;;;;;21.95;100.00;101052.63;20836569;28;20688;-73
2023/11/12 01:38:21;;;;;;;24.90;4.95;;;;;;;21.92;100.00;101050.91;20855346;28;20495;-72
2023/11/12 01:48:44;;;;;;;28.55;5.30;;;;;;;21.90;100.00;101038.41;20880270;28;20107;-72
2023/11/12 01:59:11;;;;;;;26.77;5.20;;;;;;;21.91;100.00;101046.47;20887502;28;20517;-72
2023/11/12 02:09:34;;;;;;;29.77;5.80;;;;;;;21.91;100.00;101030.31;20878718;28;20065;-73
2023/11/12 02:20:07;;;;;;;21.15;4.07;;;;;;;21.91;100.00;101051.84;20883246;28;20045;-72
2023/11/12 02:30:32;;;;;;;30.63;5.25;;;;;;;21.86;100.00;101037.59;20905288;28;20483;-72
2023/11/12 02:40:54;;;;;;;22.38;3.75;;;;;;;21.83;100.00;101035.00;20933919;28;20055;-72
2023/11/12 02:51:19;;;;;;;32.72;4.80;;;;;;;21.76;100.00;101039.66;20900857;28;20049;-73
2023/11/12 03:01:43;;;;;;;35.67;5.03;;;;;;;21.65;100.00;101043.56;20916892;28;20160;-72
2023/11/12 03:12:10;;;;;;;25.35;4.15;;;;;;;21.65;100.00;101054.31;20905712;28;20564;-72
2023/11/12 03:22:33;;;;;;;27.70;5.65;;;;;;;21.63;100.00;101061.53;20891713;28;20136;-73
2023/11/12 03:32:57;;;;;;;35.53;5.82;;;;;;;21.62;100.00;101073.19;20907810;28;20045;-73
2023/11/12 03:43:20;;;;;;;28.33;4.28;;;;;;;21.59;100.00;101066.09;20947811;28;20056;-73
2023/11/12 03:53:44;;;;;;;26.77;4.97;;;;;;;21.53;100.00;101085.03;20936857;28;20109;-72
2023/11/12 04:04:07;;;;;;;27.42;4.30;;;;;;;21.52;100.00;101090.47;20871333;28;20143;-72
2023/11/12 04:14:31;;;;;;;30.02;5.20;;;;;;;21.47;100.00;101095.94;20942798;28;20049;-73
2023/11/12 04:24:54;;;;;;;30.02;5.22;;;;;;;21.51;100.00;101102.13;20957040;28;20089;-72
2023/11/12 04:35:19;;;;;;;31.45;6.20;;;;;;;21.47;100.00;101115.63;20951879;28;20490;-72
2023/11/12 04:45:42;;;;;;;26.75;4.25;;;;;;;21.40;100.00;101142.66;20909023;28;20095;-72
2023/11/12 04:56:09;;;;;;;31.67;4.35;;;;;;;21.31;100.00;101169.75;20888946;28;20055;-72
2023/11/12 05:06:32;;;;;;;25.23;4.07;;;;;;;21.25;100.00;101169.88;20926026;28;20064;-72
2023/11/12 05:16:55;;;;;;;32.03;5.60;;;;;;;21.31;100.00;101189.44;20914643;28;20229;-72
2023/11/12 05:27:18;;;;;;;26.67;4.50;;;;;;;21.39;100.00;101194.66;20907677;28;20052;-72
2023/11/12 05:37:42;;;;;;;30.83;4.57;;;;;;;21.52;100.00;101200.63;20899062;28;20045;-73
2023/11/12 05:48:05;;;;;;;31.02;5.05;;;;;;;21.93;100.00;101219.34;20949130;28;20578;-73
2023/11/12 05:58:30;;;;;;;25.25;4.50;;;;;;;22.26;100.00;101218.56;20915670;28;20155;-73
2023/11/12 06:08:52;;;;;;;40.45;5.57;;;;;;;22.73;100.00;101211.06;20923509;28;20052;-73
2023/11/12 06:19:16;;;;;;;25.65;4.85;;;;;;;23.12;100.00;101216.28;20836449;28;20099;-73
2023/11/12 06:29:39;;;;;;;22.13;4.40;;;;;;;23.48;100.00;101220.63;20842377;28;20060;-73
2023/11/12 06:40:03;;;;;;;22.58;5.03;;;;;;;23.90;100.00;101231.00;20797843;28;20045;-73
2023/11/12 06:50:27;;;;;;;35.28;4.65;;;;;;;24.27;100.00;101249.63;20831560;28;20128;-73
2023/11/12 07:00:51;;;;;;;25.58;3.72;;;;;;;24.77;100.00;101255.97;20816476;28;20057;-73
2023/11/12 07:11:14;;;;;;;31.80;4.70;;;;;;;25.22;100.00;101265.16;20820449;28;20140;-73
2023/11/12 07:21:38;;;;;;;25.35;3.80;;;;;;;25.66;100.00;101274.34;20875842;28;20049;-73
2023/11/12 07:32:00;;;;;;;23.35;3.70;;;;;;;25.95;100.00;101272.31;20949891;28;20048;-72
2023/11/12 07:42:24;;;;;;;27.92;5.32;;;;;;;26.37;100.00;101269.72;20872374;28;20623;-71
2023/11/12 07:52:49;;;;;;;26.50;4.03;;;;;;;26.88;100.00;101275.63;20927190;28;20630;-74
2023/11/12 08:03:13;;;;;;;23.25;3.50;;;;;;;27.28;97.52;101282.91;20861931;28;20132;-72
2023/11/12 08:13:35;;;;;;;27.90;3.40;;;;;;;28.03;86.56;101280.25;20886475;28;20574;-71
2023/11/12 08:24:00;;;;;;;25.40;4.10;;;;;;;28.48;79.26;101271.72;20926555;28;20117;-72
2023/11/12 08:34:22;;;;;;;24.05;3.60;;;;;;;28.61;74.15;101260.25;20930315;28;20082;-73
2023/11/12 08:44:47;;;;;;;23.50;2.92;;;;;;;28.84;76.07;101289.84;20935840;28;20048;-72
2023/11/12 08:55:09;;;;;;;20.95;4.03;;;;;;;29.24;71.79;101311.28;20932879;28;20083;-73
2023/11/12 09:05:35;;;;;;;23.95;4.18;;;;;;;28.40;72.33;101319.25;20896882;28;20053;-72
2023/11/12 09:15:58;;;;;;;25.75;3.55;;;;;;;26.87;88.52;101308.19;20930784;28;20494;-73
2023/11/12 09:26:23;;;;;;;27.40;3.42;;;;;;;26.62;96.85;101300.25;20901148;28;20045;-72
2023/11/12 09:36:46;;;;;;;26.15;4.53;;;;;;;27.74;100.00;101294.38;20907233;28;20040;-72
2023/11/12 09:47:20;;;;;;;21.15;4.32;;;;;;;27.61;96.91;101306.75;20934362;28;20049;-72
2023/11/12 09:57:43;;;;;;;24.23;3.72;;;;;;;26.98;97.94;101295.09;20920592;28;20056;-71
2023/11/12 10:08:07;;;;;;;23.88;4.47;;;;;;;25.17;100.00;101287.91;20746288;28;20070;-71
2023/11/12 10:18:30;;;;;;;26.40;4.82;;;;;;;25.21;100.00;101274.19;20808687;28;20111;-71
2023/11/12 10:28:54;;;;;;;22.35;3.88;;;;;;;25.27;100.00;101243.38;20741283;28;20053;-71
2023/11/12 10:39:17;;;;;;;22.52;3.33;;;;;;;25.58;100.00;101254.84;20732946;28;20054;-71
2023/11/12 10:49:41;;;;;;;14.80;3.67;;;;;;;25.69;100.00;101249.00;20745924;28;20404;-71
2023/11/12 11:00:10;;;;;;;19.00;3.65;;;;;;;25.54;100.00;101249.53;20841425;28;20102;-71
2023/11/12 11:10:37;;;;;;;19.30;3.20;;;;;;;25.49;100.00;101230.81;20912295;28;20057;-71
2023/11/12 11:21:13;;;;;;;30.13;4.90;;;;;;;24.03;100.00;101253.94;20885199;28;20592;-72
2023/11/12 11:31:38;;;;;;;27.40;5.22;;;;;;;24.04;100.00;101253.00;20876873;28;20394;-73
2023/11/12 11:42:17;;;;;;;22.27;4.10;;;;;;;24.09;100.00;101270.81;20906756;28;20057;-73
2023/11/12 11:52:41;;;;;;;31.50;5.05;;;;;;;24.09;100.00;101273.50;20901691;28;20048;-72
2023/11/12 12:03:19;;;;;;;20.10;4.03;;;;;;;23.89;100.00;101267.00;20880687;28;20060;-74
2023/11/12 12:13:56;;;;;;;17.33;3.27;;;;;;;23.81;100.00;101281.63;20870193;28;20283;-74
2023/11/12 12:24:22;;;;;;;16.40;3.20;;;;;;;23.68;100.00;101269.44;20840113;28;20049;-74
2023/11/12 12:34:56;;;;;;;15.07;5.03;;;;;;;23.80;100.00;101297.84;20869027;28;20571;-74
2023/11/12 12:45:18;;;;;;;9.77;2.03;;;;;;;23.90;100.00;101287.63;20854011;28;20128;-74
2023/11/12 12:55:43;;;;;;;16.25;2.50;;;;;;;23.69;100.00;101305.38;20848168;28;20068;-74
2023/11/12 13:06:08;;;;;;;12.75;2.30;;;;;;;23.63;100.00;101295.63;20856700;28;20056;-74
2023/11/12 13:16:35;;;;;;;16.50;3.13;;;;;;;23.74;100.00;101295.31;20839167;28;20056;-73
2023/11/12 13:26:58;;;;;;;9.68;2.88;;;;;;;23.64;100.00;101310.88;20847809;28;20043;-75
2023/11/12 13:37:22;;;;;;;10.90;2.25;;;;;;;23.83;100.00;101322.00;20858609;28;20041;-75
2023/11/12 13:47:45;;;;;;;14.10;2.83;;;;;;;23.51;100.00;101338.22;20886529;28;20045;-74
2023/11/12 13:58:12;;;;;;;18.52;3.10;;;;;;;23.47;100.00;101331.16;20862977;28;20056;-73
2023/11/12 14:08:36;;;;;;;13.47;3.40;;;;;;;23.36;100.00;101328.75;20852360;28;20048;-73
2023/11/12 14:19:01;;;;;;;11.15;2.78;;;;;;;23.20;100.00;101316.63;20841752;28;20297;-74
2023/11/12 14:29:25;;;;;;;17.00;3.05;;;;;;;22.89;100.00;101306.69;20863972;28;20503;-73
2023/11/12 14:39:50;;;;;;;9.93;2.65;;;;;;;22.81;100.00;101297.03;20848024;28;20122;-74
2023/11/12 14:50:13;;;;;;;16.50;3.20;;;;;;;22.72;100.00;101297.22;20860085;28;20079;-74
2023/11/12 15:00:39;;;;;;;15.52;3.25;;;;;;;22.61;100.00;101292.13;20850748;28;20049;-74
2023/11/12 15:11:02;;;;;;;15.35;5.32;;;;;;;22.44;100.00;101291.69;20863011;28;20398;-74
2023/11/12 15:21:27;;;;;;;19.25;7.95;;;;;;;22.31;100.00;101293.78;20863786;28;20052;-74
2023/11/12 15:31:50;;;;;;;17.17;5.00;;;;;;;22.14;100.00;101306.75;20863815;28;20612;-74
2023/11/12 15:42:16;;;;;;;15.02;3.92;;;;;;;22.03;100.00;101298.94;20862849;28;20048;-75
2023/11/12 15:52:39;;;;;;;16.60;3.67;;;;;;;21.89;100.00;101303.69;20864745;28;20099;-75
2023/11/12 16:03:03;;;;;;;10.95;3.33;;;;;;;21.77;100.00;101312.03;20832131;28;20048;-75
2023/11/12 16:13:26;;;;;;;14.85;5.63;;;;;;;21.39;100.00;101332.53;20875482;28;20049;-76
2023/11/12 16:23:51;;;;;;;16.60;5.78;;;;;;;21.44;100.00;101333.31;20870804;28;20514;-75
2023/11/12 16:34:13;;;;;;;13.90;5.03;;;;;;;21.33;100.00;101345.19;20862773;28;20048;-75
2023/11/12 16:44:39;;;;;;;14.00;4.93;;;;;;;21.20;100.00;101346.34;20861336;28;20059;-76
2023/11/12 16:55:01;;;;;;;16.85;4.95;;;;;;;20.92;100.00;101348.59;20867814;28;20498;-75
2023/11/12 17:05:26;;;;;;;14.55;3.70;;;;;;;20.92;100.00;101360.22;20860548;28;20106;-78
2023/11/12 17:15:49;;;;;;;22.35;6.05;;;;;;;20.69;100.00;101363.28;20880958;28;20071;-75
2023/11/12 17:26:13;;;;;;;15.48;5.20;;;;;;;20.78;100.00;101361.38;20877455;28;20554;-75
2023/11/12 17:36:36;;;;;;;15.18;3.90;;;;;;;20.63;100.00;101352.66;20873251;28;20092;-75
2023/11/12 17:47:00;;;;;;;15.38;4.20;;;;;;;20.59;100.00;101353.63;20864164;28;20060;-75
2023/11/12 17:57:27;;;;;;;13.50;3.70;;;;;;;20.39;100.00;101363.78;20891292;28;20094;-75
2023/11/12 18:07:52;;;;;;;14.20;5.50;;;;;;;20.29;100.00;101359.41;20843396;28;20509;-74
2023/11/12 18:18:16;;;;;;;12.75;5.30;;;;;;;20.11;100.00;101375.78;20857756;28;20048;-75
2023/11/12 18:28:40;;;;;;;15.02;6.47;;;;;;;20.14;100.00;101381.09;20849742;28;20575;-74
2023/11/12 18:39:03;;;;;;;15.15;4.22;;;;;;;19.86;100.00;101388.63;20869140;28;20053;-74
2023/11/12 18:49:28;;;;;;;17.73;4.03;;;;;;;19.83;100.00;101394.88;20863628;28;20160;-75
2023/11/12 18:59:50;;;;;;;14.88;4.90;;;;;;;19.86;100.00;101397.53;20847328;28;20049;-75
2023/11/12 19:10:16;;;;;;;12.10;5.68;;;;;;;19.58;100.00;101411.25;20862142;28;20059;-75
2023/11/12 19:20:39;;;;;;;15.45;4.68;;;;;;;19.54;100.00;101410.44;20862126;28;20572;-75
2023/11/12 19:31:04;;;;;;;14.38;5.15;;;;;;;19.61;100.00;101421.97;20858001;28;20195;-75
2023/11/12 19:41:28;;;;;;;13.63;4.57;;;;;;;19.44;100.00;101432.78;20861201;28;20055;-75
2023/11/12 19:51:53;;;;;;;15.20;6.13;;;;;;;19.47;100.00;101432.81;20862376;28;20052;-75
2023/11/12 20:02:16;;;;;;;12.77;4.85;;;;;;;19.36;100.00;101437.38;20859396;28;20147;-75
2023/11/12 20:12:41;;;;;;;17.23;5.20;;;;;;;19.27;100.00;101440.13;20874814;28;20068;-74
2023/11/12 20:23:06;;;;;;;16.80;6.32;;;;;;;19.09;100.00;101435.81;20881422;28;20116;-74
2023/11/12 20:33:30;;;;;;;14.50;5.18;;;;;;;19.01;100.00;101424.28;20908604;28;20075;-75
2023/11/12 20:43:53;;;;;;;12.90;3.95;;;;;;;18.95;100.00;101432.38;20914884;28;20090;-75
2023/11/12 20:54:17;;;;;;;14.30;5.93;;;;;;;18.69;100.00;101427.22;20851417;28;20144;-75
2023/11/12 21:04:40;;;;;;;13.50;5.15;;;;;;;18.61;100.00;101426.38;20855196;28;20102;-75
2023/11/12 21:15:06;;;;;;;17.55;9.18;;;;;;;18.57;100.00;101411.25;20874017;28;20041;-74
2023/11/12 21:25:28;;;;;;;13.85;4.93;;;;;;;18.46;100.00;101407.72;20875233;28;20379;-75
2023/11/12 21:35:54;;;;;;;16.65;4.07;;;;;;;18.36;100.00;101404.22;20888649;28;20060;-76
2023/11/12 21:46:17;;;;;;;12.90;3.63;;;;;;;18.33;100.00;101407.78;20890427;28;20375;-74
2023/11/12 21:56:41;;;;;;;8.63;4.00;;;;;;;18.27;100.00;101396.25;20919532;28;20043;-73
2023/11/12 22:07:04;;;;;;;13.18;4.20;;;;;;;18.26;100.00;101382.00;20782105;28;20042;-73
2023/11/12 22:17:29;;;;;;;11.65;4.55;;;;;;;18.20;100.00;101384.69;20755917;28;20482;-73
2023/11/12 22:27:52;;;;;;;12.48;4.78;;;;;;;18.14;100.00;101370.47;20773835;28;20532;-74
2023/11/12 22:38:17;;;;;;;14.05;5.70;;;;;;;18.18;100.00;101372.25;20770014;28;20060;-73
2023/11/12 22:48:40;;;;;;;12.43;2.70;;;;;;;18.03;100.00;101357.19;20770418;28;20069;-73
2023/11/12 22:59:05;;;;;;;9.10;3.10;;;;;;;17.70;100.00;101352.91;20796342;28;20045;-73
2023/11/12 23:09:30;;;;;;;11.30;2.97;;;;;;;17.75;100.00;101339.53;20942698;28;20441;-74
2023/11/12 23:19:54;;;;;;;8.95;2.90;;;;;;;18.00;100.00;101335.81;20908826;28;20091;-74
2023/11/12 23:30:17;;;;;;;7.72;2.85;;;;;;;18.17;100.00;101331.28;20908021;28;20102;-73
2023/11/12 23:40:42;;;;;;;11.75;3.65;;;;;;;18.33;100.00;101335.63;20945955;28;20053;-73
2023/11/12 23:51:05;;;;;;;8.65;2.72;;;;;;;18.45;100.00;101333.75;20938459;28;20040;-73
